Time;durP1;ratioP1;P1;durP2;ratioP2;P2;SDS_P1;SDS_P2;PMS_P1;PMS_P2;Temp;Humidity;BMP_temperature;BMP_pressure;BME280_temperature;BME280_humidity;BME280_pressure;Samples;Min_cycle;Max_cycle;Signal;HPM_P1;HPM_P2
2022/11/14 00:01:11;;;;;;;191.43;80.20;;;;;;;;;;5058637;28;20577;-58
2022/11/14 00:03:56;;;;;;;125.03;40.60;;;;;;;;;;5058500;28;20639;-58
2022/11/14 00:06:42;;;;;;;123.60;40.65;;;;;;;;;;5058623;28;20236;-58
2022/11/14 00:09:28;;;;;;;216.43;62.58;;;;;;;;;;5058186;28;20188;-58
2022/11/14 00:12:14;;;;;;;105.70;40.47;;;;;;;;;;5058508;28;20629;-58
2022/11/14 00:14:59;;;;;;;109.78;40.35;;;;;;;;;;5058663;28;20188;-59
2022/11/14 00:17:45;;;;;;;127.95;42.28;;;;;;;;;;5058089;28;20264;-58
2022/11/14 00:20:31;;;;;;;118.95;42.72;;;;;;;;;;5058294;28;20258;-58
2022/11/14 00:23:17;;;;;;;99.90;40.65;;;;;;;;;;5058733;28;20204;-59
2022/11/14 00:26:03;;;;;;;129.73;39.08;;;;;;;;;;5057952;28;20682;-58
2022/11/14 00:28:48;;;;;;;101.03;39.20;;;;;;;;;;5058108;28;20204;-58
2022/11/14 00:31:34;;;;;;;126.55;42.67;;;;;;;;;;5057914;28;20203;-58
2022/11/14 00:34:19;;;;;;;136.15;41.95;;;;;;;;;;5057834;28;20211;-58
2022/11/14 00:37:05;;;;;;;267.38;74.00;;;;;;;;;;5057822;28;20691;-58
2022/11/14 00:39:50;;;;;;;145.52;41.90;;;;;;;;;;5057950;28;20196;-58
2022/11/14 00:42:36;;;;;;;139.75;39.90;;;;;;;;;;5058135;28;20196;-58
2022/11/14 00:45:22;;;;;;;148.23;39.08;;;;;;;;;;5057935;28;20200;-58
2022/11/14 00:48:07;;;;;;;115.55;39.55;;;;;;;;;;5057701;28;20191;-58
2022/11/14 00:50:53;;;;;;;150.25;45.67;;;;;;;;;;5057527;28;20636;-59
2022/11/14 00:53:38;;;;;;;133.43;40.15;;;;;;;;;;5057688;28;20282;-58
2022/11/14 00:56:24;;;;;;;77.15;35.58;;;;;;;;;;5057459;28;20226;-58
2022/11/14 00:59:10;;;;;;;100.82;34.60;;;;;;;;;;5057339;28;20204;-59
2022/11/14 01:01:56;;;;;;;162.05;73.63;;;;;;;;;;5056825;28;20237;-58
2022/11/14 01:04:42;;;;;;;179.25;53.55;;;;;;;;;;5059733;28;20223;-58
2022/11/14 01:07:27;;;;;;;113.03;40.67;;;;;;;;;;5076376;28;20219;-58
2022/11/14 01:10:13;;;;;;;176.30;122.18;;;;;;;;;;5077480;28;20245;-58
2022/11/14 01:12:59;;;;;;;116.25;32.10;;;;;;;;;;5077080;28;20203;-58
2022/11/14 01:15:46;;;;;;;103.18;38.55;;;;;;;;;;5076981;28;20241;-59
2022/11/14 01:18:33;;;;;;;104.15;38.50;;;;;;;;;;5077393;28;20570;-58
2022/11/14 01:21:18;;;;;;;97.45;35.28;;;;;;;;;;5077006;28;20272;-58
2022/11/14 01:24:03;;;;;;;76.15;31.90;;;;;;;;;;5076994;28;20203;-59
2022/11/14 01:26:49;;;;;;;254.57;115.07;;;;;;;;;;5077335;28;20307;-58
2022/11/14 01:29:34;;;;;;;112.43;31.48;;;;;;;;;;5076867;28;20211;-58
2022/11/14 01:32:20;;;;;;;181.23;73.57;;;;;;;;;;5077310;28;20203;-58
2022/11/14 01:35:06;;;;;;;125.05;44.95;;;;;;;;;;5076880;28;20206;-58
2022/11/14 01:37:51;;;;;;;84.25;32.55;;;;;;;;;;5076696;28;20310;-59
2022/11/14 01:40:41;;;;;;;67.47;30.38;;;;;;;;;;5076538;28;20226;-59
2022/11/14 01:43:30;;;;;;;58.88;27.65;;;;;;;;;;5076767;28;20190;-58
2022/11/14 01:46:23;;;;;;;82.38;28.40;;;;;;;;;;5076389;28;20223;-58
2022/11/14 01:49:21;;;;;;;89.55;36.88;;;;;;;;;;5075748;28;20249;-59
2022/11/14 01:52:15;;;;;;;62.58;31.25;;;;;;;;;;5076638;28;20203;-58
2022/11/14 01:55:04;;;;;;;54.67;27.35;;;;;;;;;;5076160;28;20280;-58
2022/11/14 01:57:50;;;;;;;50.38;25.92;;;;;;;;;;5075878;28;20219;-58
2022/11/14 02:00:35;;;;;;;152.68;70.20;;;;;;;;;;5075690;28;20222;-60
2022/11/14 02:03:21;;;;;;;95.70;50.10;;;;;;;;;;5076078;28;20191;-58
2022/11/14 02:06:09;;;;;;;77.38;34.00;;;;;;;;;;5076278;28;20542;-58
2022/11/14 02:08:55;;;;;;;73.43;31.63;;;;;;;;;;5075945;28;20192;-58
2022/11/14 02:11:43;;;;;;;77.13;28.45;;;;;;;;;;5076163;28;20211;-58
2022/11/14 02:14:30;;;;;;;56.33;25.48;;;;;;;;;;5075230;28;20533;-58
2022/11/14 02:17:17;;;;;;;49.03;26.95;;;;;;;;;;5075646;28;20254;-59
2022/11/14 02:20:20;;;;;;;40.33;24.55;;;;;;;;;;5075305;28;20211;-58
2022/11/14 02:23:06;;;;;;;49.38;25.55;;;;;;;;;;5075969;28;20235;-58
2022/11/14 02:25:51;;;;;;;42.92;24.20;;;;;;;;;;5075453;28;20218;-59
2022/11/14 02:28:37;;;;;;;40.20;24.17;;;;;;;;;;5076146;28;20288;-58
2022/11/14 02:31:22;;;;;;;37.47;22.58;;;;;;;;;;5075891;28;20203;-58
2022/11/14 02:34:08;;;;;;;37.47;21.98;;;;;;;;;;5075760;28;20209;-58
2022/11/14 02:36:54;;;;;;;39.63;23.35;;;;;;;;;;5075500;28;20222;-58
2022/11/14 02:39:39;;;;;;;45.08;24.23;;;;;;;;;;5075568;28;20214;-58
2022/11/14 02:42:25;;;;;;;44.47;24.52;;;;;;;;;;5075308;28;20630;-58
2022/11/14 02:45:11;;;;;;;39.75;23.27;;;;;;;;;;5076155;28;20211;-59
2022/11/14 02:47:57;;;;;;;36.58;22.85;;;;;;;;;;5075340;28;20238;-58
2022/11/14 02:50:42;;;;;;;41.78;22.83;;;;;;;;;;5075627;28;20184;-58
2022/11/14 02:53:27;;;;;;;47.83;29.15;;;;;;;;;;5075601;28;20537;-58
2022/11/14 02:56:12;;;;;;;45.42;30.40;;;;;;;;;;5075330;28;20272;-58
2022/11/14 02:58:58;;;;;;;38.90;23.00;;;;;;;;;;5075242;28;20218;-59
2022/11/14 03:01:43;;;;;;;49.42;25.13;;;;;;;;;;5075301;28;20279;-58
2022/11/14 03:04:29;;;;;;;58.05;27.15;;;;;;;;;;5075254;28;20206;-58
2022/11/14 03:07:15;;;;;;;43.10;24.45;;;;;;;;;;5075354;28;20223;-58
2022/11/14 03:10:01;;;;;;;38.55;23.40;;;;;;;;;;5075847;28;20210;-58
2022/11/14 03:12:47;;;;;;;44.72;25.42;;;;;;;;;;5075467;28;20286;-58
2022/11/14 03:15:36;;;;;;;56.50;26.15;;;;;;;;;;5074827;28;20199;-58
2022/11/14 03:18:21;;;;;;;41.65;24.67;;;;;;;;;;5074880;28;20203;-58
2022/11/14 03:21:16;;;;;;;94.53;47.35;;;;;;;;;;5075081;28;20207;-58
2022/11/14 03:24:01;;;;;;;52.13;29.63;;;;;;;;;;5074241;28;20211;-58
2022/11/14 03:26:47;;;;;;;39.88;24.70;;;;;;;;;;5074887;28;20226;-58
2022/11/14 03:29:32;;;;;;;50.03;27.55;;;;;;;;;;5075219;28;20333;-58
2022/11/14 03:32:18;;;;;;;46.60;24.70;;;;;;;;;;5074916;28;20280;-59
2022/11/14 03:35:03;;;;;;;48.45;26.10;;;;;;;;;;5074694;28;20635;-58
2022/11/14 03:37:49;;;;;;;44.50;26.02;;;;;;;;;;5075035;28;20214;-59
2022/11/14 03:40:40;;;;;;;49.00;25.35;;;;;;;;;;5074630;28;20215;-58
2022/11/14 03:43:31;;;;;;;53.17;26.23;;;;;;;;;;5074619;28;20198;-58
2022/11/14 03:46:16;;;;;;;62.90;28.40;;;;;;;;;;5074871;28;20261;-59
2022/11/14 03:49:02;;;;;;;84.55;35.00;;;;;;;;;;5074991;28;20184;-58
2022/11/14 03:51:47;;;;;;;351.98;273.88;;;;;;;;;;5074449;28;20270;-58
2022/11/14 03:54:33;;;;;;;114.32;72.72;;;;;;;;;;5074886;28;20522;-58
2022/11/14 03:57:18;;;;;;;63.80;34.88;;;;;;;;;;5074789;28;20192;-58
2022/11/14 04:00:05;;;;;;;106.10;37.75;;;;;;;;;;5074429;28;20620;-58
2022/11/14 04:02:50;;;;;;;48.47;24.67;;;;;;;;;;5074889;28;20261;-58
2022/11/14 04:05:35;;;;;;;78.47;32.15;;;;;;;;;;5074671;28;20187;-58
2022/11/14 04:08:21;;;;;;;43.58;23.45;;;;;;;;;;5074498;28;20241;-58
2022/11/14 04:11:06;;;;;;;35.22;21.58;;;;;;;;;;5075057;28;20249;-58
2022/11/14 04:13:52;;;;;;;29.80;19.33;;;;;;;;;;5074707;28;20214;-58
2022/11/14 04:16:38;;;;;;;33.83;19.73;;;;;;;;;;5075021;28;20235;-58
2022/11/14 04:19:23;;;;;;;67.03;35.72;;;;;;;;;;5074825;28;20196;-59
2022/11/14 04:22:09;;;;;;;181.38;139.35;;;;;;;;;;5074423;28;20592;-58
2022/11/14 04:24:54;;;;;;;153.05;70.85;;;;;;;;;;5073237;28;20302;-59
2022/11/14 04:27:40;;;;;;;135.38;47.30;;;;;;;;;;5063791;28;20231;-58
2022/11/14 04:30:25;;;;;;;200.45;57.45;;;;;;;;;;5055140;28;20211;-60
2022/11/14 04:33:16;;;;;;;122.13;40.80;;;;;;;;;;5061867;28;20208;-59
2022/11/14 04:36:02;;;;;;;74.43;31.88;;;;;;;;;;5068100;28;20214;-59
2022/11/14 04:38:48;;;;;;;59.85;26.55;;;;;;;;;;5074537;28;20195;-58
2022/11/14 04:41:33;;;;;;;98.03;38.30;;;;;;;;;;5071048;28;20213;-58
2022/11/14 04:44:19;;;;;;;38.58;22.08;;;;;;;;;;5070757;28;20199;-58
2022/11/14 04:47:04;;;;;;;163.85;68.60;;;;;;;;;;5069968;28;20223;-59
2022/11/14 04:49:50;;;;;;;283.40;182.88;;;;;;;;;;5068298;28;20260;-58
2022/11/14 04:52:35;;;;;;;82.40;48.97;;;;;;;;;;5062303;28;20204;-59
2022/11/14 04:55:21;;;;;;;170.40;50.20;;;;;;;;;;5069689;28;20200;-59
2022/11/14 04:58:06;;;;;;;91.53;31.15;;;;;;;;;;5065574;28;20222;-59
2022/11/14 05:00:52;;;;;;;44.53;21.10;;;;;;;;;;5064650;28;20583;-58
2022/11/14 05:03:37;;;;;;;49.90;21.67;;;;;;;;;;5061859;28;20277;-59
2022/11/14 05:06:23;;;;;;;44.45;21.50;;;;;;;;;;5076303;28;20679;-59
2022/11/14 05:09:08;;;;;;;29.25;18.10;;;;;;;;;;5066546;28;20551;-58
2022/11/14 05:11:53;;;;;;;46.25;23.15;;;;;;;;;;5055764;28;20219;-59
2022/11/14 05:14:39;;;;;;;56.90;25.38;;;;;;;;;;5056561;28;20243;-59
2022/11/14 05:17:25;;;;;;;130.68;72.90;;;;;;;;;;5056309;28;20270;-60
2022/11/14 05:20:11;;;;;;;278.15;163.05;;;;;;;;;;5056101;28;20531;-59
2022/11/14 05:22:57;;;;;;;91.35;47.28;;;;;;;;;;5056203;28;20239;-60
2022/11/14 05:25:42;;;;;;;62.53;29.35;;;;;;;;;;5055853;28;20682;-59
2022/11/14 05:28:28;;;;;;;52.28;24.15;;;;;;;;;;5055912;28;20590;-59
2022/11/14 05:31:16;;;;;;;45.78;21.77;;;;;;;;;;5055750;28;20239;-58
2022/11/14 05:34:02;;;;;;;46.38;21.48;;;;;;;;;;5055693;28;20232;-60
2022/11/14 05:36:48;;;;;;;25.55;16.35;;;;;;;;;;5056048;28;20226;-58
2022/11/14 05:39:33;;;;;;;23.38;16.10;;;;;;;;;;5064956;28;20596;-59
2022/11/14 05:42:18;;;;;;;32.60;18.58;;;;;;;;;;5075208;28;21340;-59
2022/11/14 05:45:05;;;;;;;145.85;71.88;;;;;;;;;;5075144;28;20227;-59
2022/11/14 05:47:52;;;;;;;25.90;17.67;;;;;;;;;;5075248;28;20262;-58
2022/11/14 05:50:38;;;;;;;23.90;15.77;;;;;;;;;;5075675;28;20228;-59
2022/11/14 05:53:25;;;;;;;24.55;16.00;;;;;;;;;;5074850;28;20229;-58
2022/11/14 05:56:11;;;;;;;27.00;15.68;;;;;;;;;;5071277;28;20300;-59
2022/11/14 05:58:56;;;;;;;26.25;16.33;;;;;;;;;;5055210;28;20224;-60
2022/11/14 06:01:42;;;;;;;36.33;19.10;;;;;;;;;;5055536;28;20231;-60
2022/11/14 06:04:28;;;;;;;29.95;15.93;;;;;;;;;;5063763;28;20211;-57
2022/11/14 06:07:14;;;;;;;28.58;17.63;;;;;;;;;;5058067;28;20304;-60
2022/11/14 06:10:04;;;;;;;27.20;16.63;;;;;;;;;;5063072;28;20234;-61
2022/11/14 06:12:50;;;;;;;41.05;18.88;;;;;;;;;;5062465;28;20224;-50
2022/11/14 06:15:36;;;;;;;71.78;59.30;;;;;;;;;;5055519;28;20220;-59
2022/11/14 06:18:21;;;;;;;46.28;27.13;;;;;;;;;;5058692;28;20217;-61
2022/11/14 06:21:10;;;;;;;47.08;21.27;;;;;;;;;;5059121;28;20208;-59
2022/11/14 06:23:56;;;;;;;60.63;24.33;;;;;;;;;;5073673;28;20667;-58
2022/11/14 06:26:41;;;;;;;41.90;21.50;;;;;;;;;;5070420;28;20187;-60
2022/11/14 06:29:27;;;;;;;48.95;22.15;;;;;;;;;;5072269;28;20347;-60
2022/11/14 06:32:19;;;;;;;32.83;18.52;;;;;;;;;;5072579;28;20219;-58
2022/11/14 06:35:07;;;;;;;29.33;17.40;;;;;;;;;;5075130;28;20204;-59
2022/11/14 06:37:52;;;;;;;25.05;16.70;;;;;;;;;;5074230;28;20214;-61
2022/11/14 06:40:38;;;;;;;25.17;15.13;;;;;;;;;;5074115;28;20200;-59
2022/11/14 06:43:23;;;;;;;21.35;14.68;;;;;;;;;;5074735;28;20194;-58
2022/11/14 06:46:11;;;;;;;29.00;17.05;;;;;;;;;;5074584;28;20241;-59
2022/11/14 06:48:56;;;;;;;50.40;20.42;;;;;;;;;;5073624;28;20218;-59
2022/11/14 06:51:42;;;;;;;84.18;27.67;;;;;;;;;;5073902;28;20687;-59
2022/11/14 06:54:27;;;;;;;40.20;19.10;;;;;;;;;;5073788;28;20663;-59
2022/11/14 06:57:13;;;;;;;53.13;24.23;;;;;;;;;;5073935;28;20187;-59
2022/11/14 07:00:00;;;;;;;44.88;21.98;;;;;;;;;;5072984;28;20210;-60
2022/11/14 07:02:46;;;;;;;35.70;17.70;;;;;;;;;;5073589;28;20228;-59
2022/11/14 07:05:32;;;;;;;30.20;16.67;;;;;;;;;;5073819;28;20214;-60
2022/11/14 07:08:17;;;;;;;32.90;16.40;;;;;;;;;;5073498;28;20277;-59
2022/11/14 07:11:24;;;;;;;90.75;65.22;;;;;;;;;;5074222;28;20267;-59
2022/11/14 07:14:09;;;;;;;200.25;94.55;;;;;;;;;;5074092;28;20226;-59
2022/11/14 07:16:55;;;;;;;162.70;49.38;;;;;;;;;;5073967;28;20238;-60
2022/11/14 07:19:40;;;;;;;33.72;16.77;;;;;;;;;;5073901;28;20218;-59
2022/11/14 07:22:26;;;;;;;23.40;14.13;;;;;;;;;;5074111;28;20195;-60
2022/11/14 07:25:13;;;;;;;22.95;14.43;;;;;;;;;;5073802;28;20541;-60
2022/11/14 07:27:58;;;;;;;32.95;16.75;;;;;;;;;;5073792;28;20226;-61
2022/11/14 07:30:43;;;;;;;34.47;16.45;;;;;;;;;;5073127;28;20674;-60
2022/11/14 07:33:29;;;;;;;27.77;14.68;;;;;;;;;;5073410;28;20333;-59
2022/11/14 07:36:15;;;;;;;37.78;17.75;;;;;;;;;;5073413;28;20191;-59
2022/11/14 07:39:01;;;;;;;57.13;25.98;;;;;;;;;;5073645;28;20290;-60
2022/11/14 07:41:46;;;;;;;47.72;38.53;;;;;;;;;;5073131;28;20199;-59
2022/11/14 07:44:32;;;;;;;85.53;33.72;;;;;;;;;;5073220;28;20188;-61
2022/11/14 07:47:17;;;;;;;61.70;21.50;;;;;;;;;;5073110;28;20187;-58
2022/11/14 07:50:03;;;;;;;31.92;14.52;;;;;;;;;;5073245;28;20340;-59
2022/11/14 07:52:53;;;;;;;25.92;13.07;;;;;;;;;;5073199;28;20279;-59
2022/11/14 07:55:38;;;;;;;24.17;13.02;;;;;;;;;;5073162;28;20298;-59
2022/11/14 07:58:24;;;;;;;27.98;13.40;;;;;;;;;;5073161;28;20211;-60
2022/11/14 08:01:11;;;;;;;18.85;11.50;;;;;;;;;;5073038;28;20188;-59
2022/11/14 08:03:57;;;;;;;22.23;12.20;;;;;;;;;;5072990;28;20221;-59
2022/11/14 08:06:42;;;;;;;28.20;13.52;;;;;;;;;;5073052;28;20229;-59
2022/11/14 08:09:28;;;;;;;211.63;107.32;;;;;;;;;;5072763;28;20214;-59
2022/11/14 08:12:13;;;;;;;117.22;66.15;;;;;;;;;;5076799;28;20533;-58
2022/11/14 08:14:59;;;;;;;112.28;40.78;;;;;;;;;;5076877;28;20199;-59
2022/11/14 08:17:44;;;;;;;85.82;28.40;;;;;;;;;;5077050;28;20338;-59
2022/11/14 08:20:29;;;;;;;54.47;19.92;;;;;;;;;;5076912;28;20595;-60
2022/11/14 08:23:15;;;;;;;42.97;16.88;;;;;;;;;;5076823;28;20288;-59
2022/11/14 08:26:00;;;;;;;25.80;12.13;;;;;;;;;;5076988;28;20191;-58
2022/11/14 08:28:46;;;;;;;26.95;13.80;;;;;;;;;;5075246;28;20314;-60
2022/11/14 08:31:31;;;;;;;20.70;10.85;;;;;;;;;;5075341;28;20218;-59
2022/11/14 08:34:17;;;;;;;18.58;10.05;;;;;;;;;;5075425;28;20828;-61
2022/11/14 08:37:02;;;;;;;96.43;50.97;;;;;;;;;;5075474;28;20229;-60
2022/11/14 08:39:48;;;;;;;192.30;123.35;;;;;;;;;;5076822;28;20226;-59
2022/11/14 08:42:33;;;;;;;72.22;38.42;;;;;;;;;;5076345;28;20207;-60
2022/11/14 08:45:19;;;;;;;61.47;22.83;;;;;;;;;;5076145;28;20261;-59
2022/11/14 08:48:05;;;;;;;61.65;18.73;;;;;;;;;;5076467;28;20227;-59
2022/11/14 08:50:50;;;;;;;68.88;21.30;;;;;;;;;;5076239;28;20202;-59
2022/11/14 08:53:35;;;;;;;32.58;13.48;;;;;;;;;;5075935;28;20253;-58
2022/11/14 08:56:21;;;;;;;33.88;13.68;;;;;;;;;;5076538;28;20242;-59
2022/11/14 08:59:06;;;;;;;33.67;14.52;;;;;;;;;;5076620;28;20576;-58
2022/11/14 09:01:51;;;;;;;21.45;10.57;;;;;;;;;;5076265;28;20265;-58
2022/11/14 09:04:37;;;;;;;28.65;11.85;;;;;;;;;;5076017;28;20215;-60
2022/11/14 09:07:22;;;;;;;53.25;29.92;;;;;;;;;;5076323;28;20194;-60
2022/11/14 09:10:08;;;;;;;60.58;21.67;;;;;;;;;;5076178;28;20199;-58
2022/11/14 09:12:57;;;;;;;79.93;24.85;;;;;;;;;;5076247;28;20203;-59
2022/11/14 09:15:43;;;;;;;98.25;69.00;;;;;;;;;;5075765;28;20235;-58
2022/11/14 09:18:29;;;;;;;96.40;50.00;;;;;;;;;;5075926;28;20210;-59
2022/11/14 09:21:16;;;;;;;44.17;17.40;;;;;;;;;;5076539;28;20207;-58
2022/11/14 09:24:02;;;;;;;53.40;17.55;;;;;;;;;;5074523;28;20309;-59
2022/11/14 09:26:50;;;;;;;28.77;12.10;;;;;;;;;;5076048;28;20511;-58
2022/11/14 09:29:41;;;;;;;25.67;13.00;;;;;;;;;;5075149;28;20827;-59
2022/11/14 09:32:27;;;;;;;26.90;12.52;;;;;;;;;;5075329;28;20207;-60
2022/11/14 09:35:12;;;;;;;24.85;11.48;;;;;;;;;;5075597;28;20528;-59
2022/11/14 09:38:02;;;;;;;24.95;11.77;;;;;;;;;;5075720;28;20214;-59
2022/11/14 09:40:54;;;;;;;19.48;8.35;;;;;;;;;;5075152;28;20192;-59
2022/11/14 09:44:01;;;;;;;70.93;37.53;;;;;;;;;;5074660;28;20195;-59
2022/11/14 09:47:06;;;;;;;130.10;104.25;;;;;;;;;;5075367;28;20286;-60
2022/11/14 09:49:56;;;;;;;46.10;22.30;;;;;;;;;;5074437;28;20727;-58
2022/11/14 09:53:14;;;;;;;46.72;16.38;;;;;;;;;;5074764;28;20211;-60
2022/11/14 09:55:59;;;;;;;34.50;13.27;;;;;;;;;;5044697;28;20217;-58
2022/11/14 09:58:45;;;;;;;27.08;11.73;;;;;;;;;;5074885;28;20203;-59
2022/11/14 10:01:51;;;;;;;18.63;9.60;;;;;;;;;;5074808;28;20229;-59
2022/11/14 10:04:49;;;;;;;18.08;9.10;;;;;;;;;;5074980;28;20198;-58
2022/11/14 10:07:52;;;;;;;32.92;14.98;;;;;;;;;;5074971;28;20666;-58
2022/11/14 10:11:07;;;;;;;18.90;9.95;;;;;;;;;;5074635;28;20705;-58
2022/11/14 10:14:30;;;;;;;81.20;40.08;;;;;;;;;;5074268;28;20214;-58
2022/11/14 10:17:55;;;;;;;59.17;22.92;;;;;;;;;;5074644;28;20232;-58
2022/11/14 10:20:45;;;;;;;43.35;38.65;;;;;;;;;;5074148;28;20203;-60
2022/11/14 10:23:55;;;;;;;47.60;23.15;;;;;;;;;;5074280;28;20635;-60
2022/11/14 10:26:50;;;;;;;82.95;27.02;;;;;;;;;;5073761;28;20503;-60
2022/11/14 10:29:48;;;;;;;42.97;15.07;;;;;;;;;;5073308;28;20789;-59
2022/11/14 10:32:36;;;;;;;29.13;12.07;;;;;;;;;;5075063;28;20516;-58
2022/11/14 10:35:34;;;;;;;13.25;7.63;;;;;;;;;;5073662;28;20187;-58
2022/11/14 10:38:28;;;;;;;19.23;9.57;;;;;;;;;;5074488;28;20272;-59
2022/11/14 10:41:15;;;;;;;12.57;6.85;;;;;;;;;;5074294;28;20203;-58
2022/11/14 10:44:26;;;;;;;18.40;9.50;;;;;;;;;;5073553;28;20207;-59
2022/11/14 10:47:14;;;;;;;47.72;23.42;;;;;;;;;;5073338;28;20211;-59
2022/11/14 10:50:17;;;;;;;94.88;73.25;;;;;;;;;;5072994;28;20231;-60
2022/11/14 10:53:09;;;;;;;37.97;20.02;;;;;;;;;;5073541;28;20306;-59
2022/11/14 10:55:56;;;;;;;26.88;10.65;;;;;;;;;;5073348;28;20183;-58
2022/11/14 10:58:49;;;;;;;18.85;8.07;;;;;;;;;;5074455;28;20192;-58
2022/11/14 11:01:43;;;;;;;12.52;6.95;;;;;;;;;;5074192;28;20253;-60
2022/11/14 11:04:34;;;;;;;12.15;6.53;;;;;;;;;;5073934;28;20199;-59
2022/11/14 11:13:55;;;;;;;10.20;5.65;;;;;;;;;;5073956;28;20225;-60
2022/11/14 11:16:40;;;;;;;70.38;35.63;;;;;;;;;;5072975;28;20250;-58
2022/11/14 11:19:26;;;;;;;71.18;20.13;;;;;;;;;;5073505;28;20194;-60
2022/11/14 11:22:28;;;;;;;161.57;55.55;;;;;;;;;;5073430;28;20711;-59
2022/11/14 11:25:22;;;;;;;31.80;17.48;;;;;;;;;;5073929;28;20195;-58
2022/11/14 11:28:25;;;;;;;45.15;13.88;;;;;;;;;;5073431;28;20652;-58
2022/11/14 11:31:11;;;;;;;26.45;10.65;;;;;;;;;;5073495;28;20588;-59
2022/11/14 11:34:02;;;;;;;13.88;7.43;;;;;;;;;;5073203;28;20222;-59
2022/11/14 11:36:52;;;;;;;22.13;8.57;;;;;;;;;;5073652;28;20203;-59
2022/11/14 11:39:42;;;;;;;14.60;7.28;;;;;;;;;;5072537;28;20553;-58
2022/11/14 11:42:40;;;;;;;12.18;7.65;;;;;;;;;;5072929;28;20199;-59
2022/11/14 11:45:47;;;;;;;17.80;8.25;;;;;;;;;;5075242;28;20198;-58
2022/11/14 11:48:37;;;;;;;13.18;7.72;;;;;;;;;;5077151;28;20268;-58
2022/11/14 11:51:23;;;;;;;35.45;16.95;;;;;;;;;;5077586;28;20279;-59
2022/11/14 11:54:14;;;;;;;46.10;41.15;;;;;;;;;;5076743;28;20572;-59
2022/11/14 11:57:01;;;;;;;15.88;9.95;;;;;;;;;;5076734;28;20213;-58
2022/11/14 11:59:53;;;;;;;36.55;13.02;;;;;;;;;;5076483;28;20207;-59
2022/11/14 12:02:43;;;;;;;33.65;11.95;;;;;;;;;;5076184;28;20199;-58
2022/11/14 12:05:51;;;;;;;17.58;8.77;;;;;;;;;;5077150;28;20573;-59
2022/11/14 12:08:58;;;;;;;17.25;8.25;;;;;;;;;;5076965;28;20249;-59
2022/11/14 12:11:53;;;;;;;15.13;7.93;;;;;;;;;;5077080;28;20204;-58
2022/11/14 12:15:05;;;;;;;16.05;8.32;;;;;;;;;;5076263;28;20278;-58
2022/11/14 12:18:13;;;;;;;20.70;9.02;;;;;;;;;;5076646;28;20207;-58
2022/11/14 12:21:05;;;;;;;35.55;19.77;;;;;;;;;;5076191;28;20249;-59
2022/11/14 12:24:01;;;;;;;34.92;13.27;;;;;;;;;;5076796;28;20206;-58
2022/11/14 12:26:59;;;;;;;26.65;10.05;;;;;;;;;;5075748;28;20205;-59
2022/11/14 12:30:01;;;;;;;46.40;27.15;;;;;;;;;;5076457;28;20304;-58
2022/11/14 12:33:08;;;;;;;41.88;22.85;;;;;;;;;;5076654;28;20195;-59
2022/11/14 12:35:57;;;;;;;23.80;11.13;;;;;;;;;;5076787;28;20192;-58
2022/11/14 12:38:47;;;;;;;46.65;15.02;;;;;;;;;;5076389;28;20666;-59
2022/11/14 12:41:36;;;;;;;15.35;8.23;;;;;;;;;;5075875;28;20265;-59
2022/11/14 12:44:28;;;;;;;17.98;8.93;;;;;;;;;;5075518;28;20215;-58
2022/11/14 12:47:17;;;;;;;13.57;7.60;;;;;;;;;;5076342;28;20203;-59
2022/11/14 12:50:06;;;;;;;14.68;8.40;;;;;;;;;;5076181;28;20320;-59
2022/11/14 12:52:53;;;;;;;24.10;9.52;;;;;;;;;;5075428;28;20658;-59
2022/11/14 12:55:42;;;;;;;18.45;9.32;;;;;;;;;;5075661;28;20179;-59
2022/11/14 12:58:55;;;;;;;29.55;15.73;;;;;;;;;;5073599;28;20211;-59
2022/11/14 13:01:52;;;;;;;82.95;61.65;;;;;;;;;;5076963;28;20208;-59
2022/11/14 13:04:55;;;;;;;31.75;17.80;;;;;;;;;;5076942;28;20573;-58
2022/11/14 13:07:41;;;;;;;27.17;11.40;;;;;;;;;;5074157;28;20710;-58
2022/11/14 13:10:36;;;;;;;25.88;11.57;;;;;;;;;;5075106;28;20211;-60
2022/11/14 13:22:40;;;;;;;13.65;8.00;;;;;;;;;;5075617;28;20192;-61
2022/11/14 13:25:25;;;;;;;18.95;9.18;;;;;;;;;;5075554;28;20203;-59
2022/11/14 13:28:36;;;;;;;125.90;65.38;;;;;;;;;;5069346;28;20675;-60
2022/11/14 13:31:24;;;;;;;110.15;40.45;;;;;;;;;;5075777;28;20222;-61
2022/11/14 13:34:35;;;;;;;62.83;37.67;;;;;;;;;;5070619;28;20219;-60
2022/11/14 13:37:49;;;;;;;48.40;18.05;;;;;;;;;;5072604;28;20219;-60
2022/11/14 13:40:49;;;;;;;53.63;18.45;;;;;;;;;;5074825;28;20231;-59
2022/11/14 13:43:59;;;;;;;39.65;15.65;;;;;;;;;;5072626;28;20307;-58
2022/11/14 13:47:16;;;;;;;34.50;14.32;;;;;;;;;;5074007;28;20249;-59
2022/11/14 13:50:05;;;;;;;30.40;13.98;;;;;;;;;;5075023;28;20237;-59
2022/11/14 13:52:50;;;;;;;24.42;12.07;;;;;;;;;;5074671;28;20258;-59
2022/11/14 13:56:14;;;;;;;28.42;12.85;;;;;;;;;;5075258;28;20535;-60
2022/11/14 13:59:13;;;;;;;110.18;50.42;;;;;;;;;;5059381;28;20234;-60
2022/11/14 14:02:23;;;;;;;59.80;20.52;;;;;;;;;;5075600;28;20219;-59
2022/11/14 14:05:50;;;;;;;31.17;12.43;;;;;;;;;;5075676;28;20215;-59
2022/11/14 14:08:51;;;;;;;42.47;24.35;;;;;;;;;;5046757;28;20242;-60
2022/11/14 14:12:02;;;;;;;43.22;15.25;;;;;;;;;;5073745;28;20230;-61
2022/11/14 14:15:24;;;;;;;38.58;14.10;;;;;;;;;;5075075;28;20238;-60
2022/11/14 14:18:15;;;;;;;23.27;11.00;;;;;;;;;;5074671;28;20223;-60
2022/11/14 14:21:13;;;;;;;19.50;9.82;;;;;;;;;;5075057;28;20238;-59
2022/11/14 14:24:12;;;;;;;15.48;8.82;;;;;;;;;;5074944;28;20532;-57
2022/11/14 14:27:22;;;;;;;14.52;8.85;;;;;;;;;;5073581;28;20227;-58
2022/11/14 14:30:10;;;;;;;18.23;8.93;;;;;;;;;;5075278;28;20246;-58
2022/11/14 14:33:13;;;;;;;28.67;12.80;;;;;;;;;;5073241;28;20211;-61
2022/11/14 14:35:59;;;;;;;247.90;82.13;;;;;;;;;;5073915;28;20219;-62
2022/11/14 14:38:45;;;;;;;56.65;37.80;;;;;;;;;;5055251;28;20321;-61
2022/11/14 14:41:31;;;;;;;38.88;16.95;;;;;;;;;;5055803;28;20223;-61
2022/11/14 14:44:28;;;;;;;40.78;15.35;;;;;;;;;;5071040;28;20218;-59
2022/11/14 14:47:32;;;;;;;42.63;15.07;;;;;;;;;;5070410;28;20227;-57
2022/11/14 14:50:23;;;;;;;29.75;12.93;;;;;;;;;;5073809;28;20321;-59
2022/11/14 14:53:51;;;;;;;20.55;10.20;;;;;;;;;;5073180;28;20675;-60
2022/11/14 14:56:37;;;;;;;13.98;8.70;;;;;;;;;;5031713;28;20215;-60
2022/11/14 14:59:24;;;;;;;14.35;8.15;;;;;;;;;;5030175;28;20232;-59
2022/11/14 15:02:17;;;;;;;12.65;7.97;;;;;;;;;;5031343;28;20316;-60
2022/11/14 15:05:03;;;;;;;32.58;15.90;;;;;;;;;;5017034;28;20234;-57
2022/11/14 15:07:49;;;;;;;30.98;11.20;;;;;;;;;;5045136;28;20685;-59
2022/11/14 15:10:35;;;;;;;25.35;10.23;;;;;;;;;;5031275;28;20695;-61
2022/11/14 15:13:21;;;;;;;12.02;8.77;;;;;;;;;;5027271;28;20244;-60
2022/11/14 15:16:08;;;;;;;25.13;11.93;;;;;;;;;;5016431;28;20244;-60
2022/11/14 15:18:54;;;;;;;20.77;9.10;;;;;;;;;;5028783;28;20405;-60
2022/11/14 15:21:42;;;;;;;30.80;11.88;;;;;;;;;;5029597;28;20216;-60
2022/11/14 15:24:27;;;;;;;13.32;7.80;;;;;;;;;;5031072;28;20535;-60
2022/11/14 15:27:18;;;;;;;14.10;8.27;;;;;;;;;;5030778;28;20227;-59
2022/11/14 15:30:06;;;;;;;15.82;8.55;;;;;;;;;;5044394;28;20536;-59
2022/11/14 15:32:59;;;;;;;13.90;8.77;;;;;;;;;;5073051;28;20543;-59
2022/11/14 15:35:45;;;;;;;16.85;8.88;;;;;;;;;;5071022;28;20310;-58
2022/11/14 15:38:31;;;;;;;41.40;15.77;;;;;;;;;;5069722;28;20741;-60
2022/11/14 15:41:32;;;;;;;417.27;242.80;;;;;;;;;;5068148;28;20221;-60
2022/11/14 15:44:29;;;;;;;244.75;186.60;;;;;;;;;;5070977;28;20214;-60
2022/11/14 15:47:35;;;;;;;462.63;295.00;;;;;;;;;;5059395;28;20257;-60
2022/11/14 15:50:30;;;;;;;311.48;233.75;;;;;;;;;;5060268;28;20612;-60
2022/11/14 15:53:22;;;;;;;64.15;49.20;;;;;;;;;;5067433;28;20223;-60
2022/11/14 15:56:10;;;;;;;240.93;122.47;;;;;;;;;;5068381;28;20226;-59
2022/11/14 15:58:55;;;;;;;225.00;82.95;;;;;;;;;;5068196;28;20299;-57
2022/11/14 16:01:43;;;;;;;35.38;22.45;;;;;;;;;;5072738;28;20219;-59
2022/11/14 16:04:33;;;;;;;25.38;14.25;;;;;;;;;;5070779;28;20223;-54
2022/11/14 16:07:19;;;;;;;21.30;13.90;;;;;;;;;;5061291;28;20239;-59
2022/11/14 16:10:15;;;;;;;102.65;43.10;;;;;;;;;;5072582;28;20257;-59
2022/11/14 16:13:01;;;;;;;121.70;82.28;;;;;;;;;;5073423;28;20230;-58
2022/11/14 16:15:46;;;;;;;28.05;19.70;;;;;;;;;;5070307;28;20284;-59
2022/11/14 16:18:32;;;;;;;37.10;17.60;;;;;;;;;;5066420;28;20253;-58
2022/11/14 16:21:18;;;;;;;36.25;19.27;;;;;;;;;;5072377;28;20234;-60
2022/11/14 16:24:05;;;;;;;31.02;18.23;;;;;;;;;;5072564;28;20648;-60
2022/11/14 16:26:51;;;;;;;53.35;38.35;;;;;;;;;;5071612;28;20223;-60
2022/11/14 16:29:37;;;;;;;29.10;19.27;;;;;;;;;;5069289;28;20216;-60
2022/11/14 16:32:25;;;;;;;88.78;51.22;;;;;;;;;;5072866;28;20281;-58
2022/11/14 16:35:13;;;;;;;31.52;23.25;;;;;;;;;;5076973;28;20698;-59
2022/11/14 16:37:58;;;;;;;54.92;35.45;;;;;;;;;;5077110;28;20529;-57
2022/11/14 16:40:44;;;;;;;79.35;35.92;;;;;;;;;;5063883;28;20238;-58
2022/11/14 16:43:29;;;;;;;46.20;41.15;;;;;;;;;;5064007;28;20235;-55